createdAt,value
2018-03-28T00:01:59.350Z,65.53
2018-03-28T00:04:31.143Z,65.61
2018-03-28T00:07:00.778Z,66.62
2018-03-28T00:09:29.439Z,64.21
2018-03-28T00:11:57.835Z,65.15
2018-03-28T00:14:27.714Z,65.74
2018-03-28T00:16:57.175Z,64.57
2018-03-28T00:19:26.672Z,64.36
2018-03-28T00:21:55.080Z,62.24
2018-03-28T00:24:54.993Z,60.57
2018-03-28T00:27:23.438Z,61.63
2018-03-28T00:29:53.983Z,60.68
2018-03-28T00:32:23.950Z,62.96
2018-03-28T00:34:52.437Z,60.54
2018-03-28T00:37:20.871Z,59.57
2018-03-28T00:39:49.250Z,62.01
2018-03-28T00:42:17.955Z,61.33
2018-03-28T00:44:46.782Z,61.14
2018-03-28T00:47:15.424Z,58.85
2018-03-28T00:49:44.045Z,58.60
2018-03-28T00:52:12.463Z,59.46
2018-03-28T00:54:42.400Z,58.40
2018-03-28T00:57:10.989Z,59.86
2018-03-28T00:59:43.132Z,57.88
2018-03-28T01:02:13.269Z,59.15
2018-03-28T01:04:41.793Z,58.86
2018-03-28T01:07:12.781Z,59.46
2018-03-28T01:09:41.423Z,58.74
2018-03-28T01:12:13.474Z,58.68
2018-03-28T01:14:43.027Z,61.27
2018-03-28T01:17:12.402Z,61.20
2018-03-28T01:19:41.962Z,59.48
2018-03-28T01:22:10.523Z,59.04
2018-03-28T01:24:42.023Z,58.77
2018-03-28T01:27:10.797Z,59.50
2018-03-28T01:29:40.632Z,59.42
2018-03-28T01:32:10.831Z,59.08
2018-03-28T01:34:44.120Z,58.32
2018-03-28T01:37:14.539Z,58.54
2018-03-28T01:39:45.619Z,58.77
2018-03-28T01:42:16.767Z,57.95
2018-03-28T01:44:45.348Z,57.89
2018-03-28T01:47:14.268Z,57.55
2018-03-28T01:49:44.154Z,57.30
2018-03-28T01:52:12.651Z,57.82
2018-03-28T01:54:41.173Z,57.46
2018-03-28T01:57:11.621Z,59.40
2018-03-28T01:59:43.896Z,58.42
2018-03-28T02:02:15.463Z,58.66
2018-03-28T02:04:44.869Z,59.11
2018-03-28T02:07:14.344Z,61.02
2018-03-28T02:09:47.048Z,60.71
2018-03-28T02:12:15.412Z,62.39
2018-03-28T02:14:44.087Z,62.13
2018-03-28T02:17:12.438Z,60.92
2018-03-28T02:19:41.029Z,60.98
2018-03-28T02:22:09.440Z,61.20
2018-03-28T02:24:37.792Z,61.04
2018-03-28T02:27:06.304Z,61.10
2018-03-28T02:29:36.824Z,61.96
2018-03-28T02:32:11.237Z,60.91
2018-03-28T02:34:41.987Z,59.92
2018-03-28T02:37:11.601Z,60.51
2018-03-28T02:39:40.254Z,60.61
2018-03-28T02:42:12.554Z,60.25
2018-03-28T02:44:45.711Z,59.80
2018-03-28T02:47:21.793Z,60.04
2018-03-28T02:49:50.180Z,59.56
2018-03-28T02:54:54.934Z,62.88
2018-03-28T02:57:23.431Z,64.13
2018-03-28T02:59:51.807Z,62.16
2018-03-28T03:02:21.636Z,64.71
2018-03-28T03:04:50.062Z,67.71
2018-03-28T03:07:18.530Z,65.27
2018-03-28T03:09:46.903Z,63.94
2018-03-28T03:12:15.540Z,64.17
2018-03-28T03:14:45.889Z,69.14
2018-03-28T03:17:15.807Z,64.77
2018-03-28T03:19:45.072Z,63.45
2018-03-28T03:22:13.478Z,61.73
2018-03-28T03:24:41.912Z,59.91
2018-03-28T03:27:10.375Z,60.14
2018-03-28T03:29:39.525Z,60.75
2018-03-28T03:32:08.025Z,60.09
2018-03-28T03:34:40.630Z,60.29
2018-03-28T03:37:13.932Z,59.40
2018-03-28T03:39:42.389Z,60.17
2018-03-28T03:42:10.776Z,64.05
2018-03-28T03:44:39.631Z,63.45
2018-03-28T03:47:09.953Z,61.85
2018-03-28T03:49:38.381Z,60.65
2018-03-28T03:52:08.414Z,61.10
2018-03-28T03:54:36.941Z,62.05
2018-03-28T03:57:05.348Z,62.10
2018-03-28T03:59:33.888Z,59.97
2018-03-28T04:02:04.422Z,62.81
2018-03-28T04:04:33.098Z,63.72
2018-03-28T04:07:01.569Z,63.73
2018-03-28T04:09:30.037Z,61.99
2018-03-28T04:11:58.575Z,62.16
2018-03-28T04:14:29.799Z,61.45
2018-03-28T04:17:02.146Z,61.35
2018-03-28T04:19:35.284Z,62.79
2018-03-28T04:22:07.685Z,61.97
2018-03-28T04:24:36.195Z,60.88
2018-03-28T04:27:05.899Z,60.40
2018-03-28T04:29:35.904Z,61.54
2018-03-28T04:32:04.320Z,62.11
2018-03-28T04:34:33.027Z,60.65
2018-03-28T04:37:01.558Z,60.51
2018-03-28T04:39:30.098Z,62.72
2018-03-28T04:41:58.780Z,61.76
2018-03-28T04:44:34.332Z,60.67
2018-03-28T04:47:04.567Z,60.36
2018-03-28T04:49:36.128Z,61.01
2018-03-28T04:52:04.659Z,61.74
2018-03-28T04:54:36.495Z,63.14
2018-03-28T04:59:39.342Z,65.44
2018-03-28T05:02:13.166Z,63.70
2018-03-28T05:04:44.563Z,63.41
2018-03-28T05:07:16.064Z,64.51
2018-03-28T05:09:45.166Z,68.84
2018-03-28T05:12:15.026Z,69.77
2018-03-28T05:14:47.009Z,66.63
2018-03-28T05:17:17.190Z,67.53
2018-03-28T05:19:48.038Z,68.57
2018-03-28T05:22:16.446Z,65.52
2018-03-28T05:24:46.673Z,69.26
2018-03-28T05:27:15.183Z,69.56
2018-03-28T05:29:44.207Z,68.52
2018-03-28T05:32:13.513Z,68.17
2018-03-28T05:34:43.272Z,64.73
2018-03-28T05:37:13.940Z,65.17
2018-03-28T05:39:45.470Z,66.00
2018-03-28T05:42:14.215Z,66.99
2018-03-28T05:44:45.124Z,65.89
2018-03-28T05:47:17.810Z,65.08
2018-03-28T05:49:46.382Z,64.72
2018-03-28T05:52:14.840Z,64.31
2018-03-28T05:54:45.422Z,65.98
2018-03-28T05:57:14.140Z,64.70
2018-03-28T05:59:44.518Z,67.57
2018-03-28T06:02:14.040Z,65.64
2018-03-28T06:04:44.451Z,63.64
2018-03-28T06:07:12.931Z,64.03
2018-03-28T06:09:43.801Z,62.43
2018-03-28T06:12:16.072Z,64.36
2018-03-28T06:14:45.437Z,64.21
2018-03-28T06:17:14.456Z,63.68
2018-03-28T06:19:43.015Z,63.69
2018-03-28T06:22:13.746Z,63.17
2018-03-28T06:24:43.527Z,65.93
2018-03-28T06:27:11.977Z,65.04
2018-03-28T06:29:40.380Z,64.64
2018-03-28T06:32:09.237Z,64.05
2018-03-28T06:34:37.626Z,63.15
2018-03-28T06:37:06.055Z,62.91
2018-03-28T06:39:34.529Z,66.38
2018-03-28T06:42:02.911Z,65.80
2018-03-28T06:44:31.308Z,64.26
2018-03-28T06:46:59.690Z,67.02
2018-03-28T06:49:28.303Z,67.00
2018-03-28T06:51:56.704Z,67.75
2018-03-28T06:54:25.106Z,65.69
2018-03-28T06:56:53.573Z,64.51
2018-03-28T06:59:21.980Z,62.01
2018-03-28T07:01:50.356Z,61.52
2018-03-28T07:04:18.759Z,61.42
2018-03-28T07:06:47.240Z,64.01
2018-03-28T07:09:15.715Z,63.66
2018-03-28T07:11:44.105Z,67.15
2018-03-28T07:14:12.515Z,67.22
2018-03-28T07:16:40.922Z,65.66
2018-03-28T07:19:09.306Z,65.20
2018-03-28T07:21:56.523Z,66.27
2018-03-28T07:24:24.892Z,63.48
2018-03-28T07:26:53.473Z,62.61
2018-03-28T07:29:21.854Z,60.65
2018-03-28T07:31:50.259Z,61.98
2018-03-28T07:34:18.687Z,61.88
2018-03-28T07:36:47.032Z,63.96
2018-03-28T07:39:15.425Z,62.90
2018-03-28T07:41:43.788Z,62.63
2018-03-28T07:44:12.196Z,63.86
2018-03-28T07:46:40.563Z,64.54
2018-03-28T07:49:08.941Z,66.04
2018-03-28T07:51:37.440Z,63.87
2018-03-28T07:54:06.028Z,63.77
2018-03-28T07:56:34.429Z,63.24
2018-03-28T07:59:02.831Z,62.99
2018-03-28T08:01:31.258Z,65.10
2018-03-28T08:03:59.721Z,64.84
2018-03-28T08:06:28.190Z,65.52
2018-03-28T08:08:56.583Z,66.52
2018-03-28T08:11:24.984Z,63.66
2018-03-28T08:13:53.394Z,67.76
2018-03-28T08:16:21.782Z,65.48
2018-03-28T08:18:50.255Z,66.63
2018-03-28T08:21:18.649Z,66.29
2018-03-28T08:23:47.104Z,65.79
2018-03-28T08:26:15.500Z,70.11
2018-03-28T08:28:43.873Z,67.75
2018-03-28T08:33:46.852Z,66.17
2018-03-28T08:36:15.330Z,64.69
2018-03-28T08:38:43.744Z,64.02
2018-03-28T08:41:12.107Z,61.64
2018-03-28T08:43:40.474Z,64.17
2018-03-28T08:46:08.890Z,60.79
2018-03-28T08:48:37.347Z,60.74
2018-03-28T08:51:05.756Z,59.34
2018-03-28T08:53:34.151Z,62.08
2018-03-28T08:56:02.682Z,60.96
2018-03-28T08:58:31.068Z,62.55
2018-03-28T09:00:59.460Z,59.39
2018-03-28T09:03:27.874Z,60.97
2018-03-28T09:05:56.283Z,59.39
2018-03-28T09:08:24.748Z,58.25
2018-03-28T09:10:53.143Z,57.18
2018-03-28T09:13:21.544Z,57.35
2018-03-28T09:15:49.997Z,59.08
2018-03-28T09:18:18.414Z,58.34
2018-03-28T09:20:46.806Z,58.21
2018-03-28T09:23:15.163Z,59.24
2018-03-28T09:25:43.541Z,57.41
2018-03-28T09:28:11.912Z,57.49
2018-03-28T09:30:40.314Z,52.93
2018-03-28T09:33:08.696Z,53.21
2018-03-28T09:35:37.072Z,52.48
2018-03-28T09:38:05.445Z,53.55
2018-03-28T09:40:33.809Z,51.09
2018-03-28T09:43:02.179Z,53.57
2018-03-28T09:45:30.639Z,51.83
2018-03-28T09:47:59.044Z,54.10
2018-03-28T09:50:27.395Z,56.63
2018-03-28T09:52:55.777Z,54.20
2018-03-28T09:55:24.176Z,55.89
2018-03-28T09:57:52.574Z,58.14
2018-03-28T10:00:26.956Z,58.29
2018-03-28T10:03:02.499Z,57.63
2018-03-28T10:05:43.240Z,56.34
2018-03-28T10:08:11.684Z,55.76
2018-03-28T10:10:40.095Z,55.42
2018-03-28T10:13:08.494Z,56.87
2018-03-28T10:15:37.096Z,59.15
2018-03-28T10:18:05.526Z,56.24
2018-03-28T10:20:33.915Z,56.64
2018-03-28T10:23:02.373Z,56.95
2018-03-28T10:25:30.942Z,55.33
2018-03-28T10:27:59.431Z,57.82
2018-03-28T10:30:27.817Z,58.28
2018-03-28T10:32:56.283Z,58.11
2018-03-28T10:35:24.708Z,57.65
2018-03-28T10:37:53.174Z,57.44
2018-03-28T10:40:21.673Z,56.20
2018-03-28T10:42:50.038Z,54.68
2018-03-28T10:45:18.427Z,56.87
2018-03-28T10:47:46.845Z,56.38
2018-03-28T10:50:15.330Z,55.04
2018-03-28T10:52:43.787Z,55.61
2018-03-28T10:55:12.250Z,53.68
2018-03-28T10:57:40.648Z,55.92
2018-03-28T11:00:09.052Z,55.01
2018-03-28T11:02:37.450Z,57.19
2018-03-28T11:05:05.866Z,54.93
2018-03-28T11:07:34.260Z,55.73
2018-03-28T11:10:02.630Z,56.84
2018-03-28T11:12:31.091Z,57.12
2018-03-28T11:17:34.086Z,56.55
2018-03-28T11:20:02.585Z,55.46
2018-03-28T11:22:31.000Z,56.09
2018-03-28T11:24:59.466Z,54.08
2018-03-28T11:27:27.850Z,54.93
2018-03-28T11:29:56.214Z,54.97
2018-03-28T11:32:24.601Z,54.17
2018-03-28T11:34:53.032Z,54.31
2018-03-28T11:37:21.561Z,54.96
2018-03-28T11:39:49.935Z,54.48
2018-03-28T11:42:18.307Z,54.28
2018-03-28T11:44:46.679Z,52.58
2018-03-28T11:47:15.063Z,54.21
2018-03-28T11:49:43.461Z,56.39
2018-03-28T11:52:11.841Z,56.94
2018-03-28T11:54:40.343Z,55.98
2018-03-28T11:57:08.764Z,56.74
2018-03-28T11:59:37.193Z,55.94
2018-03-28T12:02:05.611Z,58.21
2018-03-28T12:04:34.008Z,58.52
2018-03-28T12:07:02.404Z,58.71
2018-03-28T12:09:30.804Z,57.05
2018-03-28T12:11:59.195Z,56.65
2018-03-28T12:14:27.579Z,55.51
2018-03-28T12:16:55.986Z,55.26
2018-03-28T12:19:24.453Z,54.23
2018-03-28T12:21:52.891Z,56.91
2018-03-28T12:24:21.306Z,54.44
2018-03-28T12:26:49.844Z,55.54
2018-03-28T12:29:18.235Z,57.01
2018-03-28T12:31:46.850Z,57.19
2018-03-28T12:34:15.263Z,55.29
2018-03-28T12:36:43.776Z,53.01
2018-03-28T12:39:12.351Z,52.29
2018-03-28T12:41:40.810Z,52.74
2018-03-28T12:44:09.323Z,52.58
2018-03-28T12:46:37.695Z,51.90
2018-03-28T12:49:06.066Z,52.05
2018-03-28T12:51:34.525Z,52.66
2018-03-28T12:54:02.983Z,52.45
2018-03-28T12:56:31.380Z,52.40
2018-03-28T12:58:59.867Z,54.93
2018-03-28T13:01:28.289Z,52.11
2018-03-28T13:03:56.723Z,52.19
2018-03-28T13:06:25.137Z,52.07
2018-03-28T13:08:53.554Z,50.73
2018-03-28T13:11:22.048Z,50.02
2018-03-28T13:13:50.447Z,52.29
2018-03-28T13:16:18.889Z,54.48
2018-03-28T13:18:47.345Z,52.94
2018-03-28T13:21:15.781Z,52.56
2018-03-28T13:23:44.209Z,55.47
2018-03-28T13:26:12.622Z,54.28
2018-03-28T13:28:41.115Z,56.26
2018-03-28T13:31:10.050Z,56.01
2018-03-28T13:33:38.536Z,56.54
2018-03-28T13:36:06.909Z,54.78
2018-03-28T13:38:35.345Z,54.74
2018-03-28T13:41:03.833Z,54.37
2018-03-28T13:43:32.231Z,53.42
2018-03-28T13:46:00.624Z,53.02
2018-03-28T13:48:29.047Z,57.58
2018-03-28T13:50:57.440Z,55.02
2018-03-28T13:53:25.817Z,55.17
2018-03-28T13:55:54.205Z,56.14
2018-03-28T13:58:22.821Z,53.81
2018-03-28T14:00:51.196Z,54.69
2018-03-28T14:03:19.565Z,54.49
2018-03-28T14:05:47.990Z,55.20
2018-03-28T14:08:16.915Z,57.74
2018-03-28T14:10:45.495Z,58.70
2018-03-28T14:13:13.856Z,59.43
2018-03-28T14:15:42.290Z,57.30
2018-03-28T14:18:10.666Z,56.30
2018-03-28T14:20:39.108Z,54.06
2018-03-28T14:23:07.503Z,54.53
2018-03-28T14:25:35.912Z,59.09
2018-03-28T14:28:04.391Z,59.14
2018-03-28T14:30:32.815Z,59.64
2018-03-28T14:33:01.197Z,61.64
2018-03-28T14:35:29.583Z,61.35
2018-03-28T14:37:58.005Z,56.93
2018-03-28T14:40:26.403Z,58.44
2018-03-28T14:42:55.047Z,58.06
2018-03-28T14:45:23.308Z,59.32
2018-03-28T14:47:51.698Z,58.97
2018-03-28T14:50:20.095Z,58.29
2018-03-28T14:52:48.476Z,59.09
2018-03-28T14:55:16.848Z,57.78
2018-03-28T14:57:45.239Z,56.28
2018-03-28T15:00:13.818Z,58.70
2018-03-28T15:02:42.288Z,58.38
2018-03-28T15:05:10.696Z,61.17
2018-03-28T15:07:39.122Z,58.07
2018-03-28T15:10:07.508Z,58.12
2018-03-28T15:12:35.935Z,57.72
2018-03-28T15:15:04.325Z,61.26
2018-03-28T15:17:32.752Z,61.21
2018-03-28T15:20:01.162Z,61.92
2018-03-28T15:22:29.605Z,59.83
2018-03-28T15:24:58.072Z,61.38
2018-03-28T15:27:26.462Z,60.16
2018-03-28T15:29:54.819Z,60.08
2018-03-28T15:32:23.311Z,62.68
2018-03-28T15:34:51.744Z,61.56
2018-03-28T15:37:20.148Z,59.06
2018-03-28T15:39:48.579Z,59.00
2018-03-28T15:42:16.968Z,58.94
2018-03-28T15:44:45.369Z,58.49
2018-03-28T15:47:13.759Z,61.94
2018-03-28T15:49:42.150Z,58.53
2018-03-28T15:52:10.540Z,62.11
2018-03-28T15:54:38.921Z,60.69
2018-03-28T15:57:07.380Z,62.11
2018-03-28T15:59:35.788Z,60.11
2018-03-28T16:02:04.191Z,61.78
2018-03-28T16:04:32.572Z,60.95
2018-03-28T16:07:01.051Z,61.95
2018-03-28T16:09:29.447Z,62.51
2018-03-28T16:11:57.813Z,61.06
2018-03-28T16:14:26.274Z,61.74
2018-03-28T16:16:54.626Z,62.04
2018-03-28T16:19:23.000Z,61.79
2018-03-28T16:21:51.359Z,58.98
2018-03-28T16:24:19.712Z,58.69
2018-03-28T16:26:48.105Z,57.34
2018-03-28T16:29:16.511Z,59.89
2018-03-28T16:31:44.880Z,61.24
2018-03-28T16:34:13.247Z,62.14
2018-03-28T16:36:41.702Z,63.33
2018-03-28T16:39:10.183Z,62.35
2018-03-28T16:41:38.672Z,63.27
2018-03-28T16:44:07.032Z,64.83
2018-03-28T16:46:35.402Z,64.82
2018-03-28T16:49:03.784Z,63.67
2018-03-28T16:51:32.148Z,62.36
2018-03-28T16:54:00.545Z,64.67
2018-03-28T16:56:28.976Z,63.87
2018-03-28T16:58:57.436Z,63.64
2018-03-28T17:01:25.853Z,66.67
2018-03-28T17:03:54.235Z,69.14
2018-03-28T17:06:22.657Z,69.96
2018-03-28T17:08:51.076Z,70.20
2018-03-28T17:11:19.491Z,65.25
2018-03-28T17:13:47.842Z,69.00
2018-03-28T17:16:16.294Z,67.27
2018-03-28T17:18:45.043Z,64.46
2018-03-28T17:21:13.522Z,67.04
2018-03-28T17:23:41.896Z,65.28
2018-03-28T17:26:10.318Z,68.03
2018-03-28T17:28:38.716Z,69.04
2018-03-28T17:31:07.126Z,67.32
2018-03-28T17:33:35.493Z,69.87
2018-03-28T17:36:03.848Z,68.39
2018-03-28T17:38:32.255Z,71.99
2018-03-28T17:41:00.687Z,67.02
2018-03-28T17:43:29.123Z,68.84
2018-03-28T17:45:57.496Z,69.70
2018-03-28T17:48:25.856Z,68.60
2018-03-28T17:50:54.209Z,70.12
2018-03-28T17:53:22.610Z,67.82
2018-03-28T17:55:51.006Z,71.04
2018-03-28T17:58:19.432Z,71.37
2018-03-28T18:00:47.889Z,68.26
2018-03-28T18:03:16.360Z,70.51
2018-03-28T18:05:44.781Z,68.60
2018-03-28T18:08:13.144Z,69.38
2018-03-28T18:10:41.528Z,68.84
2018-03-28T18:13:09.923Z,66.04
2018-03-28T18:15:38.318Z,67.23
2018-03-28T18:18:06.680Z,68.44
2018-03-28T18:20:35.178Z,68.62
2018-03-28T18:23:03.536Z,69.55
2018-03-28T18:25:31.910Z,71.07
2018-03-28T18:28:00.343Z,66.99
2018-03-28T18:30:28.709Z,65.94
2018-03-28T18:32:57.253Z,66.52
2018-03-28T18:35:25.628Z,65.80
2018-03-28T18:37:54.028Z,67.38
2018-03-28T18:40:22.441Z,66.54
2018-03-28T18:42:50.810Z,68.74
2018-03-28T18:45:19.256Z,68.03
2018-03-28T18:47:47.624Z,68.12
2018-03-28T18:50:16.071Z,66.66
2018-03-28T18:52:44.469Z,67.03
2018-03-28T18:55:12.834Z,65.91
2018-03-28T18:57:41.203Z,67.62
2018-03-28T19:00:09.872Z,69.40
2018-03-28T19:02:38.229Z,68.41
2018-03-28T19:05:06.592Z,67.52
2018-03-28T19:07:34.967Z,65.52
2018-03-28T19:10:03.413Z,70.06
2018-03-28T19:12:31.890Z,69.03
2018-03-28T19:15:00.361Z,67.73
2018-03-28T19:17:28.829Z,68.41
2018-03-28T19:19:57.199Z,68.86
2018-03-28T19:22:25.595Z,67.44
2018-03-28T19:24:53.969Z,70.85
2018-03-28T19:27:22.373Z,69.05
2018-03-28T19:29:50.807Z,69.59
2018-03-28T19:32:19.232Z,68.64
2018-03-28T19:34:47.616Z,70.84
2018-03-28T19:37:16.036Z,69.01
2018-03-28T19:39:44.392Z,68.98
2018-03-28T19:42:12.765Z,67.74
2018-03-28T19:44:41.221Z,69.84
2018-03-28T19:47:09.683Z,71.48
2018-03-28T19:49:38.054Z,70.34
2018-03-28T19:52:06.446Z,69.38
2018-03-28T19:54:34.921Z,69.38
2018-03-28T19:57:03.319Z,71.30
2018-03-28T19:59:31.757Z,72.00
2018-03-28T20:02:00.156Z,70.40
2018-03-28T20:04:28.607Z,71.37
2018-03-28T20:06:56.961Z,70.70
2018-03-28T20:09:25.364Z,70.94
2018-03-28T20:11:53.947Z,70.83
2018-03-28T20:14:22.592Z,72.21
2018-03-28T20:16:51.055Z,71.39
2018-03-28T20:19:19.500Z,70.11
2018-03-28T20:21:47.902Z,70.58
2018-03-28T20:24:16.481Z,71.41
2018-03-28T20:26:44.874Z,72.45
2018-03-28T20:29:13.245Z,70.60
2018-03-28T20:31:41.664Z,69.92
2018-03-28T20:34:10.129Z,70.45
2018-03-28T20:36:38.544Z,69.14
2018-03-28T20:39:06.930Z,70.74
2018-03-28T20:41:35.321Z,69.49
2018-03-28T20:44:03.732Z,68.86
2018-03-28T20:46:32.135Z,71.11
2018-03-28T20:49:00.537Z,70.96
2018-03-28T20:51:28.888Z,69.69
2018-03-28T20:53:57.276Z,70.70
2018-03-28T20:56:25.654Z,69.13
2018-03-28T20:58:54.044Z,71.80
2018-03-28T21:01:23.018Z,69.71
2018-03-28T21:03:51.546Z,72.88
2018-03-28T21:06:19.963Z,71.03
2018-03-28T21:08:48.344Z,71.32
2018-03-28T21:11:16.730Z,71.71
2018-03-28T21:13:45.155Z,69.96
2018-03-28T21:16:13.582Z,69.56
2018-03-28T21:18:41.987Z,72.36
2018-03-28T21:21:10.540Z,72.95
2018-03-28T21:23:39.012Z,71.73
2018-03-28T21:26:07.409Z,71.38
2018-03-28T21:28:35.777Z,76.23
2018-03-28T21:31:04.238Z,72.20
2018-03-28T21:33:32.688Z,74.16
2018-03-28T21:36:01.081Z,75.07
2018-03-28T21:38:29.460Z,74.78
2018-03-28T21:40:57.863Z,75.77
2018-03-28T21:43:26.228Z,71.62
2018-03-28T21:45:54.688Z,72.69
2018-03-28T21:48:23.092Z,74.35
2018-03-28T21:50:51.485Z,71.70
2018-03-28T21:53:19.881Z,70.40
2018-03-28T21:55:48.238Z,69.82
2018-03-28T21:58:16.723Z,73.16
2018-03-28T22:00:45.141Z,72.70
2018-03-28T22:03:13.643Z,72.63
2018-03-28T22:05:42.044Z,71.87
2018-03-28T22:08:10.427Z,72.51
2018-03-28T22:10:38.813Z,74.22
2018-03-28T22:13:07.179Z,71.94
2018-03-28T22:15:35.592Z,73.24
2018-03-28T22:18:04.069Z,73.24
2018-03-28T22:20:32.486Z,72.52
2018-03-28T22:23:00.959Z,72.81
2018-03-28T22:25:29.377Z,73.26
2018-03-28T22:27:57.786Z,70.05
2018-03-28T22:30:26.239Z,69.71
2018-03-28T22:32:54.748Z,73.73
2018-03-28T22:35:23.229Z,71.40
2018-03-28T22:37:51.619Z,75.85
2018-03-28T22:40:20.123Z,75.87
2018-03-28T22:42:48.497Z,76.12
2018-03-28T22:45:16.952Z,76.03
2018-03-28T22:47:45.344Z,75.66
2018-03-28T22:50:13.763Z,75.29
2018-03-28T22:52:42.153Z,73.91
2018-03-28T22:55:10.543Z,78.16
2018-03-28T22:57:38.952Z,76.58
2018-03-28T23:00:07.530Z,76.80
2018-03-28T23:02:35.658Z,77.53
2018-03-28T23:05:04.019Z,74.66
2018-03-28T23:07:32.427Z,75.75
2018-03-28T23:10:00.910Z,77.08
2018-03-28T23:12:29.287Z,74.46
2018-03-28T23:14:57.763Z,77.15
2018-03-28T23:17:26.164Z,78.28
2018-03-28T23:19:54.562Z,75.49
2018-03-28T23:22:34.977Z,72.35
2018-03-28T23:25:03.359Z,77.00
2018-03-28T23:27:31.724Z,77.19
2018-03-28T23:30:00.096Z,73.71
2018-03-28T23:32:28.549Z,79.01
2018-03-28T23:34:56.960Z,80.81
2018-03-28T23:37:25.321Z,79.40
2018-03-28T23:39:53.696Z,75.94
2018-03-28T23:42:22.078Z,76.22
2018-03-28T23:44:50.512Z,75.54
2018-03-28T23:47:18.884Z,72.30
2018-03-28T23:49:47.272Z,75.29
2018-03-28T23:52:16.600Z,73.46
2018-03-28T23:54:45.001Z,71.91
2018-03-28T23:57:13.404Z,71.46
2018-03-28T23:59:41.779Z,70.49
